createdAt,value
2019-01-09T00:01:57.424Z,2.30
2019-01-09T00:04:26.892Z,2.40
2019-01-09T00:06:57.200Z,2.30
2019-01-09T00:09:26.571Z,2.40
2019-01-09T00:11:56.018Z,2.40
2019-01-09T00:14:25.216Z,2.40
2019-01-09T00:16:55.007Z,2.40
2019-01-09T00:19:24.402Z,2.40
2019-01-09T00:21:53.883Z,2.40
2019-01-09T00:24:23.036Z,2.50
2019-01-09T00:26:53.941Z,2.50
2019-01-09T00:29:23.259Z,2.50
2019-01-09T00:31:52.964Z,2.50
2019-01-09T00:34:22.994Z,2.40
2019-01-09T00:36:52.398Z,2.30
2019-01-09T00:39:22.159Z,2.20
2019-01-09T00:41:51.708Z,2.30
2019-01-09T00:44:21.419Z,2.30
2019-01-09T00:46:51.634Z,2.40
2019-01-09T00:49:21.044Z,2.30
2019-01-09T00:51:50.737Z,2.30
2019-01-09T00:54:20.859Z,2.30
2019-01-09T00:56:50.879Z,2.30
2019-01-09T00:59:20.629Z,2.40
2019-01-09T01:02:07.257Z,2.40
2019-01-09T01:05:04.710Z,2.40
2019-01-09T01:07:59.326Z,2.40
2019-01-09T01:11:14.919Z,2.40
2019-01-09T01:14:43.306Z,2.40
2019-01-09T01:18:02.544Z,2.40
2019-01-09T01:20:54.116Z,2.40
2019-01-09T01:24:01.234Z,2.40
2019-01-09T01:27:02.779Z,2.20
2019-01-09T01:30:31.508Z,2.20
2019-01-09T01:33:17.491Z,2.20
2019-01-09T01:36:44.042Z,2.30
2019-01-09T01:39:41.557Z,2.30
2019-01-09T01:42:51.951Z,2.30
2019-01-09T01:45:44.190Z,2.30
2019-01-09T01:48:40.153Z,2.30
2019-01-09T01:51:44.851Z,2.30
2019-01-09T01:54:34.828Z,2.20
2019-01-09T01:57:30.552Z,2.20
2019-01-09T02:00:30.785Z,2.20
2019-01-09T02:03:22.435Z,2.10
2019-01-09T02:06:23.027Z,2.10
2019-01-09T02:09:39.494Z,2.10
2019-01-09T02:12:49.962Z,2.10
2019-01-09T02:15:53.345Z,2.10
2019-01-09T02:18:30.783Z,2.20
2019-01-09T02:21:31.997Z,2.20
2019-01-09T02:24:44.126Z,2.20
2019-01-09T02:27:33.612Z,2.10
2019-01-09T02:30:36.559Z,2.10
2019-01-09T02:33:06.635Z,2.10
2019-01-09T02:35:36.794Z,2.10
2019-01-09T02:38:07.732Z,2.00
2019-01-09T02:40:37.473Z,2.10
2019-01-09T02:43:08.251Z,2.10
2019-01-09T02:45:37.735Z,2.10
2019-01-09T02:48:06.966Z,2.10
2019-01-09T02:50:37.892Z,2.00
2019-01-09T02:53:07.918Z,2.00
2019-01-09T02:55:37.638Z,2.00
2019-01-09T02:58:09.517Z,2.00
2019-01-09T03:00:39.717Z,2.00
2019-01-09T03:03:09.014Z,2.00
2019-01-09T03:05:38.930Z,2.10
2019-01-09T03:08:08.343Z,2.10
2019-01-09T03:10:37.598Z,2.00
2019-01-09T03:13:07.048Z,1.90
2019-01-09T03:15:37.295Z,1.70
2019-01-09T03:18:06.520Z,1.60
2019-01-09T03:20:35.778Z,1.60
2019-01-09T03:23:04.562Z,1.60
2019-01-09T03:25:34.333Z,1.50
2019-01-09T03:28:04.070Z,1.50
2019-01-09T03:30:34.343Z,1.50
2019-01-09T03:33:04.020Z,1.50
2019-01-09T03:35:35.870Z,1.50
2019-01-09T03:38:07.164Z,1.50
2019-01-09T03:40:37.103Z,1.50
2019-01-09T03:43:06.834Z,1.40
2019-01-09T03:45:37.258Z,1.40
2019-01-09T03:48:06.555Z,1.30
2019-01-09T03:50:36.141Z,1.30
2019-01-09T03:53:06.074Z,1.20
2019-01-09T03:55:36.426Z,1.20
2019-01-09T03:58:06.861Z,1.10
2019-01-09T04:00:36.929Z,1.10
2019-01-09T04:03:06.205Z,1.00
2019-01-09T04:05:35.883Z,1.10
2019-01-09T04:08:05.386Z,1.20
2019-01-09T04:10:34.873Z,1.20
2019-01-09T04:13:04.306Z,1.30
2019-01-09T04:15:33.723Z,1.30
2019-01-09T04:18:02.994Z,1.30
2019-01-09T04:20:33.093Z,1.20
2019-01-09T04:23:04.552Z,1.30
2019-01-09T04:25:34.178Z,1.30
2019-01-09T04:28:03.996Z,1.30
2019-01-09T04:30:33.448Z,1.40
2019-01-09T04:33:04.342Z,1.30
2019-01-09T04:35:34.744Z,1.30
2019-01-09T04:38:04.498Z,1.20
2019-01-09T04:40:34.234Z,1.10
2019-01-09T04:43:03.767Z,1.00
2019-01-09T04:45:33.274Z,1.00
2019-01-09T04:48:02.725Z,1.00
2019-01-09T04:50:34.113Z,0.90
2019-01-09T04:53:04.526Z,0.90
2019-01-09T04:55:34.033Z,0.90
2019-01-09T04:58:03.388Z,0.90
2019-01-09T05:00:33.142Z,1.00
2019-01-09T05:03:02.567Z,1.00
2019-01-09T05:05:32.330Z,1.00
2019-01-09T05:08:02.230Z,1.00
2019-01-09T05:10:31.796Z,1.00
2019-01-09T05:13:01.674Z,1.00
2019-01-09T05:15:31.082Z,1.00
2019-01-09T05:18:00.576Z,1.00
2019-01-09T05:20:30.612Z,1.10
2019-01-09T05:23:02.634Z,1.10
2019-01-09T05:25:32.423Z,1.10
2019-01-09T05:28:01.779Z,1.10
2019-01-09T05:30:31.657Z,1.00
2019-01-09T05:33:01.369Z,1.00
2019-01-09T05:35:31.593Z,1.00
2019-01-09T05:38:01.109Z,1.00
2019-01-09T05:40:34.081Z,1.00
2019-01-09T05:43:04.067Z,1.00
2019-01-09T05:45:35.889Z,1.00
2019-01-09T05:48:07.756Z,1.00
2019-01-09T05:50:38.305Z,1.00
2019-01-09T05:53:11.576Z,1.00
2019-01-09T05:55:42.294Z,1.10
2019-01-09T05:58:11.637Z,1.10
2019-01-09T06:00:48.021Z,1.10
2019-01-09T06:03:18.904Z,1.20
2019-01-09T06:05:48.978Z,1.20
2019-01-09T06:08:20.521Z,1.20
2019-01-09T06:10:56.578Z,1.20
2019-01-09T06:13:29.706Z,1.20
2019-01-09T06:16:01.295Z,1.30
2019-01-09T06:18:32.913Z,1.30
2019-01-09T06:21:03.494Z,1.30
2019-01-09T06:23:33.707Z,1.30
2019-01-09T06:26:07.445Z,1.40
2019-01-09T06:28:36.946Z,1.30
2019-01-09T06:31:08.838Z,1.40
2019-01-09T06:33:38.869Z,1.30
2019-01-09T06:36:09.806Z,1.30
2019-01-09T06:38:39.851Z,1.30
2019-01-09T06:41:09.310Z,1.30
2019-01-09T06:43:38.814Z,1.40
2019-01-09T06:46:08.200Z,1.40
2019-01-09T06:48:38.206Z,1.30
2019-01-09T06:51:09.887Z,1.30
2019-01-09T06:53:39.606Z,1.30
2019-01-09T06:56:10.231Z,1.40
2019-01-09T06:58:39.552Z,1.30
2019-01-09T07:01:09.195Z,1.30
2019-01-09T07:03:41.421Z,1.40
2019-01-09T07:06:11.199Z,1.40
2019-01-09T07:08:40.895Z,1.30
2019-01-09T07:11:12.206Z,1.30
2019-01-09T07:13:44.562Z,1.20
2019-01-09T07:16:14.577Z,1.20
2019-01-09T07:18:47.329Z,1.00
2019-01-09T07:21:17.121Z,1.00
2019-01-09T07:23:48.319Z,1.00
2019-01-09T07:26:18.016Z,1.00
2019-01-09T07:28:47.440Z,1.00
2019-01-09T07:31:17.259Z,1.00
2019-01-09T07:33:47.687Z,1.10
2019-01-09T07:36:17.280Z,1.20
2019-01-09T07:38:46.758Z,1.20
2019-01-09T07:41:16.661Z,1.20
2019-01-09T07:43:46.640Z,1.20
2019-01-09T07:46:16.364Z,1.20
2019-01-09T07:48:46.228Z,1.30
2019-01-09T07:51:16.412Z,1.30
2019-01-09T07:53:45.624Z,1.30
2019-01-09T07:56:15.232Z,1.40
2019-01-09T07:58:44.568Z,1.30
2019-01-09T08:01:15.178Z,1.40
2019-01-09T08:03:46.811Z,1.30
2019-01-09T08:06:16.423Z,1.30
2019-01-09T08:08:46.026Z,1.30
2019-01-09T08:11:17.612Z,1.30
2019-01-09T08:13:48.135Z,1.10
2019-01-09T08:16:18.242Z,0.70
2019-01-09T08:18:49.165Z,0.50
2019-01-09T08:21:33.185Z,0.30
2019-01-09T08:24:06.522Z,0.40
2019-01-09T08:26:39.552Z,0.50
2019-01-09T08:29:12.302Z,0.60
2019-01-09T08:31:42.496Z,0.60
2019-01-09T08:34:12.389Z,0.70
2019-01-09T08:36:41.774Z,0.70
2019-01-09T08:39:11.360Z,0.80
2019-01-09T08:41:41.236Z,0.80
2019-01-09T08:44:11.702Z,0.80
2019-01-09T08:46:42.648Z,0.80
2019-01-09T08:49:12.519Z,0.90
2019-01-09T08:51:42.675Z,0.90
2019-01-09T08:54:12.543Z,0.90
2019-01-09T08:56:43.765Z,0.90
2019-01-09T08:59:13.489Z,0.90
2019-01-09T09:01:43.340Z,0.80
2019-01-09T09:04:13.430Z,0.70
2019-01-09T09:06:43.453Z,0.70
2019-01-09T09:09:13.320Z,0.70
2019-01-09T09:11:42.502Z,0.70
2019-01-09T09:14:12.367Z,0.70
2019-01-09T09:16:42.271Z,0.80
2019-01-09T09:19:12.434Z,0.80
2019-01-09T09:21:43.394Z,0.90
2019-01-09T09:24:14.239Z,0.90
2019-01-09T09:26:43.684Z,1.00
2019-01-09T09:29:14.093Z,0.90
2019-01-09T09:31:44.730Z,1.10
2019-01-09T09:34:14.912Z,1.10
2019-01-09T09:36:45.378Z,1.10
2019-01-09T09:39:15.477Z,1.20
2019-01-09T09:41:46.067Z,1.10
2019-01-09T09:44:16.167Z,1.10
2019-01-09T09:46:46.520Z,1.20
2019-01-09T09:49:17.989Z,1.20
2019-01-09T09:51:47.422Z,1.20
2019-01-09T09:54:16.953Z,1.10
2019-01-09T09:56:51.885Z,1.20
2019-01-09T09:59:21.096Z,1.20
2019-01-09T10:01:50.946Z,1.20
2019-01-09T10:04:20.810Z,1.20
2019-01-09T10:06:50.998Z,1.20
2019-01-09T10:09:20.179Z,1.20
2019-01-09T10:11:52.800Z,1.10
2019-01-09T10:14:23.098Z,1.10
2019-01-09T10:16:53.546Z,1.00
2019-01-09T10:19:23.021Z,1.00
2019-01-09T10:21:52.666Z,1.00
2019-01-09T10:24:23.655Z,1.10
2019-01-09T10:26:54.340Z,1.10
2019-01-09T10:29:24.415Z,1.10
2019-01-09T10:31:54.559Z,1.10
2019-01-09T10:34:24.159Z,1.20
2019-01-09T10:36:59.542Z,1.00
2019-01-09T10:39:29.960Z,1.10
2019-01-09T10:41:59.367Z,1.20
2019-01-09T10:44:31.293Z,1.10
2019-01-09T10:47:00.928Z,1.10
2019-01-09T10:49:30.642Z,1.20
2019-01-09T10:52:02.106Z,1.20
2019-01-09T10:54:31.425Z,1.10
2019-01-09T10:57:00.817Z,1.10
2019-01-09T10:59:30.797Z,1.10
2019-01-09T11:02:01.116Z,1.10
2019-01-09T11:04:30.636Z,1.20
2019-01-09T11:07:01.514Z,1.20
2019-01-09T11:09:31.671Z,1.30
2019-01-09T11:12:01.362Z,1.20
2019-01-09T11:14:31.125Z,1.20
2019-01-09T11:17:00.345Z,1.30
2019-01-09T11:19:30.233Z,1.30
2019-01-09T11:21:59.707Z,1.20
2019-01-09T11:24:31.214Z,1.20
2019-01-09T11:27:01.505Z,1.20
2019-01-09T11:29:31.104Z,1.10
2019-01-09T11:32:01.450Z,1.10
2019-01-09T11:34:31.572Z,1.20
2019-01-09T11:37:00.970Z,1.20
2019-01-09T11:39:30.844Z,1.10
2019-01-09T11:42:02.849Z,1.20
2019-01-09T11:44:34.416Z,1.20
2019-01-09T11:47:05.986Z,1.20
2019-01-09T11:49:35.427Z,1.20
2019-01-09T11:52:05.264Z,1.10
2019-01-09T11:54:34.910Z,1.20
2019-01-09T11:57:04.559Z,1.10
2019-01-09T11:59:35.350Z,1.30
2019-01-09T12:02:06.341Z,1.40
2019-01-09T12:04:35.583Z,1.40
2019-01-09T12:07:07.231Z,1.50
2019-01-09T12:09:36.563Z,1.40
2019-01-09T12:12:07.030Z,1.30
2019-01-09T12:14:37.285Z,1.20
2019-01-09T12:17:08.430Z,1.10
2019-01-09T12:19:38.282Z,1.20
2019-01-09T12:22:10.094Z,1.20
2019-01-09T12:24:45.344Z,1.10
2019-01-09T12:27:17.372Z,1.20
2019-01-09T12:29:47.249Z,1.30
2019-01-09T12:32:17.957Z,1.20
2019-01-09T12:34:47.681Z,1.20
2019-01-09T12:37:17.797Z,1.20
2019-01-09T12:39:47.917Z,1.30
2019-01-09T12:42:17.811Z,1.30
2019-01-09T12:44:47.473Z,1.40
2019-01-09T12:47:18.459Z,1.30
2019-01-09T12:49:48.295Z,1.30
2019-01-09T12:52:19.637Z,1.30
2019-01-09T12:54:49.342Z,1.30
2019-01-09T12:57:19.246Z,1.30
2019-01-09T12:59:50.492Z,1.20
2019-01-09T13:02:20.196Z,1.20
2019-01-09T13:04:49.381Z,1.20
2019-01-09T13:07:18.571Z,1.20
2019-01-09T13:09:48.900Z,1.20
2019-01-09T13:12:19.013Z,1.10
2019-01-09T13:14:48.473Z,1.10
2019-01-09T13:17:18.719Z,1.20
2019-01-09T13:19:48.180Z,1.20
2019-01-09T13:22:17.331Z,1.30
2019-01-09T13:24:47.164Z,1.30
2019-01-09T13:27:16.776Z,1.30
2019-01-09T13:29:46.807Z,1.20
2019-01-09T13:32:18.606Z,1.10
2019-01-09T13:34:48.457Z,0.90
2019-01-09T13:37:18.059Z,1.00
2019-01-09T13:39:48.654Z,1.00
2019-01-09T13:42:18.584Z,1.10
2019-01-09T13:44:48.446Z,1.00
2019-01-09T13:47:18.368Z,1.00
2019-01-09T13:49:47.870Z,0.90
2019-01-09T13:52:17.558Z,1.00
2019-01-09T13:54:46.858Z,1.00
2019-01-09T13:57:16.237Z,1.10
2019-01-09T13:59:45.470Z,1.10
2019-01-09T14:02:14.917Z,1.00
2019-01-09T14:04:45.479Z,1.00
2019-01-09T14:07:17.838Z,1.00
2019-01-09T14:09:51.193Z,0.90
2019-01-09T14:12:21.072Z,0.90
2019-01-09T14:14:50.653Z,0.90
2019-01-09T14:17:20.678Z,0.80
2019-01-09T14:19:50.736Z,0.90
2019-01-09T14:22:20.006Z,0.80
2019-01-09T14:24:49.819Z,0.90
2019-01-09T14:27:23.175Z,0.80
2019-01-09T14:29:52.508Z,0.80
2019-01-09T14:32:22.081Z,0.80
2019-01-09T14:34:52.622Z,0.70
2019-01-09T14:37:21.877Z,0.70
2019-01-09T14:39:51.427Z,0.70
2019-01-09T14:42:20.568Z,0.60
2019-01-09T14:44:50.341Z,0.70
2019-01-09T14:47:21.394Z,0.70
2019-01-09T14:49:51.108Z,0.60
2019-01-09T14:52:20.923Z,0.60
2019-01-09T14:54:50.150Z,0.70
2019-01-09T14:57:19.911Z,0.60
2019-01-09T14:59:50.327Z,0.60
2019-01-09T15:02:21.548Z,0.50
2019-01-09T15:04:51.243Z,0.50
2019-01-09T15:07:20.759Z,0.50
2019-01-09T15:09:56.655Z,0.50
2019-01-09T15:12:20.940Z,0.50
2019-01-09T15:14:53.226Z,0.50
2019-01-09T15:17:22.553Z,0.60
2019-01-09T15:19:52.569Z,0.50
2019-01-09T15:22:22.194Z,0.50
2019-01-09T15:24:53.018Z,0.50
2019-01-09T15:27:23.024Z,0.50
2019-01-09T15:29:53.529Z,0.60
2019-01-09T15:32:23.359Z,0.40
2019-01-09T15:34:54.097Z,0.40
2019-01-09T15:37:23.924Z,0.40
2019-01-09T15:39:53.083Z,0.50
2019-01-09T15:42:22.903Z,0.50
2019-01-09T15:44:52.482Z,0.40
2019-01-09T15:47:24.086Z,0.50
2019-01-09T15:49:53.580Z,0.40
2019-01-09T15:52:23.071Z,0.40
2019-01-09T15:54:53.409Z,0.40
2019-01-09T15:57:22.913Z,0.40
2019-01-09T15:59:52.726Z,0.40
2019-01-09T16:02:22.644Z,0.50
2019-01-09T16:04:52.279Z,0.40
2019-01-09T16:07:21.788Z,0.40
2019-01-09T16:09:52.047Z,0.40
2019-01-09T16:12:22.089Z,0.50
2019-01-09T16:14:52.640Z,0.50
2019-01-09T16:17:22.489Z,0.50
2019-01-09T16:19:51.930Z,0.50
2019-01-09T16:22:22.371Z,0.40
2019-01-09T16:24:51.843Z,0.40
2019-01-09T16:27:24.166Z,0.40
2019-01-09T16:29:55.314Z,0.40
2019-01-09T16:32:24.987Z,0.40
2019-01-09T16:34:55.305Z,0.40
2019-01-09T16:37:24.946Z,0.40
2019-01-09T16:39:54.452Z,0.40
2019-01-09T16:42:26.388Z,0.30
2019-01-09T16:44:55.950Z,0.30
2019-01-09T16:47:28.507Z,0.30
2019-01-09T16:49:59.614Z,0.30
2019-01-09T16:52:28.799Z,0.30
2019-01-09T16:54:58.338Z,0.40
2019-01-09T16:57:28.727Z,0.30
2019-01-09T16:59:58.515Z,0.20
2019-01-09T17:02:27.684Z,0.20
2019-01-09T17:04:57.102Z,0.20
2019-01-09T17:07:26.776Z,0.30
2019-01-09T17:09:56.798Z,0.40
2019-01-09T17:12:26.301Z,0.30
2019-01-09T17:14:55.483Z,0.30
2019-01-09T17:17:25.664Z,0.20
2019-01-09T17:19:55.744Z,0.30
2019-01-09T17:22:24.948Z,0.30
2019-01-09T17:24:54.819Z,0.40
2019-01-09T17:27:24.627Z,0.40
2019-01-09T17:29:54.297Z,0.30
2019-01-09T17:32:23.549Z,0.30
2019-01-09T17:34:55.716Z,0.30
2019-01-09T17:37:25.401Z,0.30
2019-01-09T17:39:55.154Z,0.40
2019-01-09T17:42:25.660Z,0.30
2019-01-09T17:44:55.036Z,0.40
2019-01-09T17:47:25.798Z,0.30
2019-01-09T17:49:56.331Z,0.30
2019-01-09T17:52:26.041Z,0.20
2019-01-09T17:54:56.590Z,0.20
2019-01-09T17:57:27.309Z,0.20
2019-01-09T17:59:56.814Z,0.20
2019-01-09T18:02:26.917Z,0.20
2019-01-09T18:04:56.858Z,0.30
2019-01-09T18:07:27.139Z,0.30
2019-01-09T18:09:58.481Z,0.20
2019-01-09T18:12:28.366Z,0.20
2019-01-09T18:14:58.269Z,0.20
2019-01-09T18:17:32.947Z,0.10
2019-01-09T18:20:03.049Z,0.20
2019-01-09T18:22:33.013Z,0.10
2019-01-09T18:25:02.651Z,0.10
2019-01-09T18:27:35.616Z,0.10
2019-01-09T18:30:06.958Z,0.20
2019-01-09T18:32:50.773Z,0.20
2019-01-09T18:35:47.290Z,0.20
2019-01-09T18:38:41.377Z,0.10
2019-01-09T18:41:32.720Z,0.20
2019-01-09T18:44:17.252Z,0.10
2019-01-09T18:47:20.041Z,0.10
2019-01-09T18:50:27.238Z,0.00
2019-01-09T18:53:48.551Z,0.00
2019-01-09T18:56:18.067Z,0.00
